Time;durP1;ratioP1;P1;durP2;ratioP2;P2;SDS_P1;SDS_P2;PMS_P1;PMS_P2;Temp;Humidity;BMP_temperature;BMP_pressure;BME280_temperature;BME280_humidity;BME280_pressure;Samples;Min_cycle;Max_cycle;Signal;HPM_P1;HPM_P2
2023/06/18 00:00:09;;;;;;;;;;;23.40;82.60;23.50;99201.00;;;;342495;28;83427;-88
2023/06/18 00:00:21;;;;;;;;;;;23.40;82.20;23.50;99201.00;;;;343578;28;88563;-87
2023/06/18 00:00:33;;;;;;;;;;;23.40;82.30;23.50;99210.00;;;;345039;28;83451;-88
2023/06/18 00:00:45;;;;;;;;;;;23.40;83.10;23.40;99212.00;;;;343422;28;87951;-88
2023/06/18 00:00:56;;;;;;;;;;;23.40;83.10;23.40;99210.00;;;;347938;28;82459;-88
2023/06/18 00:01:09;;;;;;;;;;;23.40;83.10;23.40;99207.00;;;;343324;28;88899;-88
2023/06/18 00:01:21;;;;;;;;;;;23.40;83.00;23.40;99213.00;;;;343888;28;82346;-88
2023/06/18 00:01:33;;;;;;;;;;;23.40;83.00;23.50;99208.00;;;;344649;28;88904;-88
2023/06/18 00:01:45;;;;;;;;;;;23.40;82.50;23.50;99204.00;;;;344069;28;82500;-88
2023/06/18 00:01:58;;;;;;;;;;;23.40;82.70;23.60;99205.00;;;;343461;28;88082;-88
2023/06/18 00:02:09;;;;;;;;;;;23.40;82.50;23.50;99204.00;;;;346749;28;82353;-88
2023/06/18 00:02:21;;;;;;;;;;;23.40;83.10;23.50;99203.00;;;;343548;28;91585;-88
2023/06/18 00:02:33;;;;;;;;;;;23.40;82.90;23.40;99206.00;;;;345189;28;83428;-88
2023/06/18 00:02:45;;;;;;;;;;;23.40;82.80;23.50;99207.00;;;;344799;28;90256;-88
2023/06/18 00:02:57;;;;;;;;;;;23.40;82.40;23.50;99208.00;;;;345169;28;83511;-88
2023/06/18 00:03:09;;;;;;;;;;;23.40;82.40;23.50;99199.00;;;;344619;28;91402;-88
2023/06/18 00:03:20;;;;;;;;;;;23.40;82.50;23.50;99203.00;;;;345183;28;82524;-88
2023/06/18 00:03:33;;;;;;;;;;;23.40;82.50;23.30;99212.00;;;;344723;28;91695;-88
2023/06/18 00:03:45;;;;;;;;;;;23.30;83.20;23.30;99206.00;;;;342466;28;83401;-87
2023/06/18 00:03:56;;;;;;;;;;;23.30;83.20;23.20;99201.00;;;;343444;28;88498;-88
2023/06/18 00:04:09;;;;;;;;;;;23.30;83.30;23.30;99208.00;;;;343767;28;83479;-87
2023/06/18 00:04:21;;;;;;;;;;;23.40;83.00;23.40;99203.00;;;;343702;28;90357;-87
2023/06/18 00:04:33;;;;;;;;;;;23.30;82.60;23.30;99204.00;;;;342597;28;82565;-88
2023/06/18 00:04:45;;;;;;;;;;;23.30;82.80;23.30;99206.00;;;;343566;28;87669;-88
2023/06/18 00:04:56;;;;;;;;;;;23.30;82.90;23.20;99204.00;;;;342553;28;82615;-88
2023/06/18 00:05:08;;;;;;;;;;;23.40;83.00;23.20;99206.00;;;;343285;28;91863;-88
2023/06/18 00:05:20;;;;;;;;;;;23.30;82.80;23.20;99200.00;;;;343873;28;82688;-88
2023/06/18 00:05:32;;;;;;;;;;;23.30;82.90;23.20;99207.00;;;;345841;28;89409;-88
2023/06/18 00:05:44;;;;;;;;;;;23.30;82.70;23.20;99203.00;;;;342450;28;82420;-88
2023/06/18 00:05:56;;;;;;;;;;;23.30;82.40;23.30;99208.00;;;;340650;28;91551;-88
2023/06/18 00:06:07;;;;;;;;;;;23.30;82.10;23.30;99206.00;;;;342441;28;82438;-88
2023/06/18 00:06:19;;;;;;;;;;;23.30;82.10;23.30;99201.00;;;;340844;28;90607;-88
2023/06/18 00:06:31;;;;;;;;;;;23.30;81.90;23.30;99213.00;;;;343809;28;83496;-88
2023/06/18 00:06:43;;;;;;;;;;;23.30;82.20;23.20;99205.00;;;;345057;28;88872;-88
2023/06/18 00:06:55;;;;;;;;;;;23.30;82.90;23.30;99205.00;;;;345273;28;82448;-88
2023/06/18 00:07:07;;;;;;;;;;;23.30;83.10;23.30;99202.00;;;;341948;28;88597;-88
2023/06/18 00:07:19;;;;;;;;;;;23.30;82.90;23.40;99196.00;;;;343760;28;83261;-88
2023/06/18 00:07:31;;;;;;;;;;;23.30;82.10;23.40;99199.00;;;;344418;28;88862;-88
2023/06/18 00:07:43;;;;;;;;;;;23.30;82.10;23.40;99202.00;;;;342015;28;83603;-88
2023/06/18 00:07:55;;;;;;;;;;;23.30;81.80;23.40;99211.00;;;;342932;28;90306;-88
2023/06/18 00:08:06;;;;;;;;;;;23.30;81.80;23.40;99209.00;;;;344861;28;83263;-88
2023/06/18 00:08:18;;;;;;;;;;;23.30;82.20;23.40;99211.00;;;;342918;28;93038;-88
2023/06/18 00:08:30;;;;;;;;;;;23.30;82.30;23.40;99212.00;;;;343645;28;82476;-88
2023/06/18 00:08:42;;;;;;;;;;;23.30;82.30;23.30;99205.00;;;;345775;28;90188;-88
2023/06/18 00:08:54;;;;;;;;;;;23.30;82.60;23.30;99203.00;;;;343309;28;83474;-88
2023/06/18 00:09:05;;;;;;;;;;;23.30;82.90;23.30;99210.00;;;;341570;28;92256;-88
2023/06/18 00:09:17;;;;;;;;;;;23.30;83.20;23.30;99214.00;;;;343406;28;83504;-88
2023/06/18 00:09:29;;;;;;;;;;;23.30;83.00;23.30;99213.00;;;;341656;28;88546;-88
2023/06/18 00:09:41;;;;;;;;;;;23.30;82.80;23.40;99204.00;;;;344722;28;83453;-88
2023/06/18 00:09:53;;;;;;;;;;;23.30;82.20;23.30;99212.00;;;;345791;28;90453;-88
2023/06/18 00:10:05;;;;;;;;;;;23.30;82.00;23.20;99208.00;;;;343363;28;83497;-89
2023/06/18 00:10:17;;;;;;;;;;;23.30;82.70;23.20;99214.00;;;;344221;28;91219;-88
2023/06/18 00:10:29;;;;;;;;;;;23.30;83.10;23.20;99213.00;;;;343499;28;83470;-88
2023/06/18 00:10:41;;;;;;;;;;;23.30;83.50;23.20;99208.00;;;;340249;28;92392;-88
2023/06/18 00:10:53;;;;;;;;;;;23.30;83.70;23.20;99214.00;;;;342098;28;83642;-88
2023/06/18 00:11:05;;;;;;;;;;;23.30;83.20;23.20;99205.00;;;;344271;28;91155;-88
2023/06/18 00:11:16;;;;;;;;;;;23.20;83.00;23.30;99208.00;;;;344695;28;82701;-88
2023/06/18 00:11:28;;;;;;;;;;;23.30;82.60;23.20;99205.00;;;;340311;28;89739;-88
2023/06/18 00:11:40;;;;;;;;;;;23.30;83.00;23.20;99215.00;;;;342029;28;83388;-88
2023/06/18 00:11:52;;;;;;;;;;;23.30;83.00;23.20;99207.00;;;;341578;28;92227;-88
2023/06/18 00:12:04;;;;;;;;;;;23.20;82.70;23.30;99213.00;;;;343359;28;84106;-88
2023/06/18 00:12:16;;;;;;;;;;;23.20;82.20;23.40;99218.00;;;;341634;28;88854;-88
2023/06/18 00:12:28;;;;;;;;;;;23.20;82.20;23.40;99216.00;;;;342109;28;83273;-88
2023/06/18 00:12:39;;;;;;;;;;;23.20;82.40;23.20;99214.00;;;;340385;28;88729;-88
2023/06/18 00:12:51;;;;;;;;;;;23.30;82.60;23.10;99212.00;;;;344448;28;84338;-88
2023/06/18 00:13:04;;;;;;;;;;;23.20;83.10;23.00;99206.00;;;;341564;28;92564;-88
2023/06/18 00:13:15;;;;;;;;;;;23.20;83.40;23.00;99209.00;;;;344838;28;83364;-88
2023/06/18 00:13:27;;;;;;;;;;;23.20;83.40;22.90;99209.00;;;;344362;28;90796;-88
2023/06/18 00:13:39;;;;;;;;;;;23.20;83.40;22.90;99213.00;;;;343375;28;83517;-88
2023/06/18 00:13:51;;;;;;;;;;;23.10;83.50;22.80;99215.00;;;;344318;28;91345;-88
2023/06/18 00:14:03;;;;;;;;;;;23.10;83.50;22.80;99207.00;;;;346217;28;82523;-88
2023/06/18 00:14:14;;;;;;;;;;;23.10;83.60;22.80;99213.00;;;;344337;28;88881;-88
2023/06/18 00:14:26;;;;;;;;;;;23.10;83.50;22.70;99213.00;;;;344680;28;83520;-88
2023/06/18 00:14:38;;;;;;;;;;;23.00;83.60;22.60;99212.00;;;;343014;28;91551;-88
2023/06/18 00:14:50;;;;;;;;;;;23.00;83.70;22.60;99212.00;;;;343397;28;83316;-88
2023/06/18 00:15:02;;;;;;;;;;;23.00;83.70;22.60;99209.00;;;;344338;28;92990;-89
2023/06/18 00:15:14;;;;;;;;;;;23.00;83.80;22.60;99211.00;;;;343358;28;82612;-88
2023/06/18 00:15:26;;;;;;;;;;;22.90;83.80;22.60;99211.00;;;;343012;28;88774;-88
2023/06/18 00:15:37;;;;;;;;;;;22.90;83.90;22.60;99211.00;;;;344499;28;83483;-88
2023/06/18 00:15:49;;;;;;;;;;;22.90;84.10;22.50;99211.00;;;;341673;28;89189;-88
2023/06/18 00:16:01;;;;;;;;;;;22.80;84.10;22.50;99213.00;;;;340793;28;82410;-87
2023/06/18 00:16:13;;;;;;;;;;;22.80;84.20;22.60;99217.00;;;;340293;28;88867;-88
2023/06/18 00:16:25;;;;;;;;;;;22.80;84.10;22.60;99217.00;;;;343653;28;82475;-88
2023/06/18 00:16:37;;;;;;;;;;;22.80;84.20;22.70;99211.00;;;;341660;28;90391;-88
2023/06/18 00:16:50;;;;;;;;;;;22.80;84.00;22.70;99216.00;;;;341961;28;83470;-88
2023/06/18 00:17:01;;;;;;;;;;;22.80;84.20;22.80;99210.00;;;;342924;28;91119;-88
2023/06/18 00:17:13;;;;;;;;;;;22.80;83.80;22.80;99206.00;;;;343378;28;83413;-88
2023/06/18 00:17:25;;;;;;;;;;;22.80;83.60;22.70;99206.00;;;;344335;28;90150;-88
2023/06/18 00:17:37;;;;;;;;;;;22.80;84.30;22.70;99206.00;;;;343449;28;83396;-88
2023/06/18 00:17:49;;;;;;;;;;;22.80;84.60;22.60;99209.00;;;;345658;28;92262;-88
2023/06/18 00:18:01;;;;;;;;;;;22.80;84.50;22.60;99211.00;;;;342110;28;83484;-88
2023/06/18 00:20:42;;;;;;;;;;;22.70;85.10;22.50;99209.00;;;;127605;26;90627;-88
2023/06/18 00:20:54;;;;;;;;;;;22.60;85.10;22.60;99208.00;;;;342706;28;82610;-87
2023/06/18 00:21:10;;;;;;;;;;;22.70;84.80;22.50;99217.00;;;;340520;28;91521;-88
2023/06/18 00:21:22;;;;;;;;;;;22.60;85.20;22.60;99212.00;;;;339849;28;82616;-88
2023/06/18 00:21:34;;;;;;;;;;;22.60;85.20;22.60;99203.00;;;;339262;28;89262;-88
2023/06/18 00:21:47;;;;;;;;;;;22.60;84.80;22.60;99209.00;;;;339875;28;82525;-88
2023/06/18 00:21:59;;;;;;;;;;;22.60;84.70;22.70;99205.00;;;;338301;28;89509;-88
2023/06/18 00:22:14;;;;;;;;;;;22.60;84.10;22.60;99212.00;;;;338381;28;83532;-88
2023/06/18 00:22:26;;;;;;;;;;;22.60;84.00;22.70;99210.00;;;;339054;28;91476;-87
2023/06/18 00:22:38;;;;;;;;;;;22.60;84.00;22.80;99205.00;;;;339532;28;83257;-88
2023/06/18 00:22:52;;;;;;;;;;;22.60;84.10;22.90;99212.00;;;;338822;28;91132;-88
2023/06/18 00:23:04;;;;;;;;;;;22.60;84.30;22.70;99205.00;;;;336916;28;82455;-88
2023/06/18 00:23:16;;;;;;;;;;;22.60;84.70;22.70;99210.00;;;;336378;28;88147;-88
2023/06/18 00:23:28;;;;;;;;;;;22.70;84.70;22.70;99207.00;;;;339391;28;83431;-88
2023/06/18 00:23:40;;;;;;;;;;;22.60;84.60;22.70;99212.00;;;;340332;28;87683;-87
2023/06/18 00:23:51;;;;;;;;;;;22.60;84.80;22.70;99213.00;;;;339442;28;82429;-88
2023/06/18 00:24:04;;;;;;;;;;;22.60;84.30;22.70;99205.00;;;;337445;28;91340;-88
2023/06/18 00:24:16;;;;;;;;;;;22.60;84.10;22.60;99205.00;;;;340682;28;83517;-88
2023/06/18 00:24:28;;;;;;;;;;;22.60;84.50;22.70;99204.00;;;;339227;28;93174;-88
2023/06/18 00:24:40;;;;;;;;;;;22.60;84.50;22.80;99207.00;;;;339332;28;83372;-88
2023/06/18 00:24:52;;;;;;;;;;;22.60;84.00;22.80;99208.00;;;;336212;28;91993;-88
2023/06/18 00:25:05;;;;;;;;;;;22.70;83.90;22.90;99214.00;;;;340517;28;82601;-88
2023/06/18 00:25:17;;;;;;;;;;;22.60;83.80;22.90;99216.00;;;;338893;28;91954;-87
2023/06/18 00:25:29;;;;;;;;;;;22.70;84.10;22.90;99212.00;;;;339452;28;83391;-88
2023/06/18 00:25:42;;;;;;;;;;;22.70;84.20;22.90;99209.00;;;;341596;28;91648;-88
2023/06/18 00:25:53;;;;;;;;;;;22.70;84.20;23.00;99203.00;;;;338016;28;83472;-88
2023/06/18 00:26:05;;;;;;;;;;;22.70;84.30;22.80;99208.00;;;;338847;28;91598;-88
2023/06/18 00:26:17;;;;;;;;;;;22.70;84.70;22.80;99210.00;;;;340629;28;83552;-88
2023/06/18 00:26:29;;;;;;;;;;;22.70;84.90;22.90;99207.00;;;;338791;28;92794;-88
2023/06/18 00:26:40;;;;;;;;;;;22.70;84.60;22.80;99199.00;;;;339366;28;83263;-88
2023/06/18 00:26:52;;;;;;;;;;;22.70;85.00;22.80;99205.00;;;;338970;28;90715;-88
2023/06/18 00:27:04;;;;;;;;;;;22.70;84.70;22.90;99216.00;;;;339405;28;83481;-88
2023/06/18 00:27:16;;;;;;;;;;;22.70;84.90;22.70;99211.00;;;;339013;28;88764;-88
2023/06/18 00:27:28;;;;;;;;;;;22.60;85.40;22.70;99210.00;;;;336630;28;83394;-88
2023/06/18 00:27:42;;;;;;;;;;;22.70;85.60;22.80;99200.00;;;;337588;28;90966;-87
2023/06/18 00:27:54;;;;;;;;;;;22.70;85.40;22.70;99207.00;;;;338108;28;83362;-88
2023/06/18 00:28:06;;;;;;;;;;;22.70;85.50;22.60;99202.00;;;;340218;28;91273;-88
2023/06/18 00:28:18;;;;;;;;;;;22.70;85.60;22.70;99206.00;;;;340775;28;82574;-88
2023/06/18 00:28:31;;;;;;;;;;;22.60;85.70;22.60;99211.00;;;;340147;28;91923;-88
2023/06/18 00:28:43;;;;;;;;;;;22.70;85.80;22.60;99209.00;;;;339483;28;83525;-88
2023/06/18 00:28:54;;;;;;;;;;;22.70;85.90;22.70;99199.00;;;;339030;28;91649;-88
2023/06/18 00:29:06;;;;;;;;;;;22.70;85.30;22.80;99213.00;;;;339410;28;82466;-88
2023/06/18 00:29:18;;;;;;;;;;;22.70;85.00;22.90;99208.00;;;;338257;28;90477;-87
2023/06/18 00:29:30;;;;;;;;;;;22.70;85.10;22.90;99206.00;;;;338110;28;82403;-88
2023/06/18 00:29:47;;;;;;;;;;;22.70;85.10;22.80;99212.00;;;;339047;28;88007;-89
2023/06/18 00:30:04;;;;;;;;;;;22.70;85.20;22.70;99202.00;;;;338140;28;82585;-89
2023/06/18 00:30:15;;;;;;;;;;;22.70;85.30;22.80;99208.00;;;;340312;28;88010;-88
2023/06/18 00:30:27;;;;;;;;;;;22.70;84.90;22.70;99210.00;;;;339409;28;83372;-88
2023/06/18 00:30:39;;;;;;;;;;;22.70;85.40;22.70;99206.00;;;;338728;28;93458;-88
2023/06/18 00:30:51;;;;;;;;;;;22.70;85.80;22.70;99201.00;;;;339316;28;82530;-88
2023/06/18 00:31:02;;;;;;;;;;;22.70;85.30;22.70;99210.00;;;;340431;28;87994;-88
2023/06/18 00:31:14;;;;;;;;;;;22.70;85.10;22.70;99210.00;;;;338103;28;83438;-87
2023/06/18 00:31:27;;;;;;;;;;;22.70;85.60;22.70;99209.00;;;;337572;28;91621;-88
2023/06/18 00:31:39;;;;;;;;;;;22.70;85.80;22.70;99203.00;;;;340631;28;83486;-88
2023/06/18 00:31:50;;;;;;;;;;;22.70;85.30;22.60;99212.00;;;;340285;28;89181;-88
2023/06/18 00:32:03;;;;;;;;;;;22.70;85.40;22.60;99206.00;;;;340843;28;83325;-87
2023/06/18 00:32:15;;;;;;;;;;;22.70;85.80;22.70;99209.00;;;;336227;28;91406;-87
2023/06/18 00:32:28;;;;;;;;;;;22.70;85.30;22.70;99212.00;;;;336730;28;83467;-88
2023/06/18 00:32:44;;;;;;;;;;;22.70;85.20;22.70;99208.00;;;;337622;28;90000;-88
2023/06/18 00:32:58;;;;;;;;;;;22.70;85.50;22.80;99208.00;;;;342063;28;82539;-88
2023/06/18 00:33:10;;;;;;;;;;;22.70;85.30;22.70;99215.00;;;;337761;28;89015;-89
2023/06/18 00:33:22;;;;;;;;;;;22.70;85.60;22.70;99211.00;;;;339435;28;83455;-87
2023/06/18 00:33:34;;;;;;;;;;;22.70;85.80;22.70;99209.00;;;;338856;28;91277;-88
2023/06/18 00:33:45;;;;;;;;;;;22.70;85.80;22.70;99209.00;;;;337986;28;83397;-88
2023/06/18 00:34:04;;;;;;;;;;;22.70;85.00;22.80;99211.00;;;;336304;28;88942;-88
2023/06/18 00:34:17;;;;;;;;;;;22.70;84.90;22.70;99215.00;;;;337923;28;83493;-88
2023/06/18 00:34:32;;;;;;;;;;;22.70;85.30;22.60;99216.00;;;;336390;28;89062;-88
2023/06/18 00:34:46;;;;;;;;;;;22.70;85.80;22.80;99210.00;;;;339251;28;83545;-88
2023/06/18 00:35:00;;;;;;;;;;;22.70;85.40;22.80;99208.00;;;;338928;28;90386;-88
2023/06/18 00:35:14;;;;;;;;;;;22.70;85.90;22.80;99210.00;;;;338091;28;83375;-88
2023/06/18 00:35:26;;;;;;;;;;;22.70;86.10;22.60;99211.00;;;;340316;28;88703;-88
2023/06/18 00:35:39;;;;;;;;;;;22.70;86.30;22.50;99206.00;;;;340752;28;82479;-88
2023/06/18 00:35:57;;;;;;;;;;;22.70;86.70;22.50;99210.00;;;;336170;28;91829;-88
2023/06/18 00:36:09;;;;;;;;;;;22.70;87.10;22.50;99206.00;;;;338033;28;83436;-88
2023/06/18 00:36:26;;;;;;;;;;;22.70;87.30;22.60;99209.00;;;;338891;28;89199;-88
2023/06/18 00:36:43;;;;;;;;;;;22.70;86.80;22.70;99206.00;;;;339396;28;83317;-88
2023/06/18 00:36:57;;;;;;;;;;;22.60;86.40;22.70;99210.00;;;;336178;28;91839;-88
2023/06/18 00:37:10;;;;;;;;;;;22.60;86.20;22.80;99212.00;;;;338161;28;82448;-88
2023/06/18 00:37:27;;;;;;;;;;;22.70;86.00;22.90;99213.00;;;;340259;28;89529;-88
2023/06/18 00:37:39;;;;;;;;;;;22.70;85.90;22.80;99212.00;;;;335385;29;83441;-88
2023/06/18 00:37:52;;;;;;;;;;;22.70;85.80;22.70;99213.00;;;;338764;28;91295;-88
2023/06/18 00:38:04;;;;;;;;;;;22.70;86.50;22.80;99206.00;;;;340825;28;83519;-89
2023/06/18 00:38:16;;;;;;;;;;;22.70;86.80;22.80;99212.00;;;;339466;28;87624;-88
2023/06/18 00:38:28;;;;;;;;;;;22.70;86.10;22.90;99214.00;;;;337305;28;82516;-88
2023/06/18 00:38:46;;;;;;;;;;;22.70;85.80;23.00;99208.00;;;;339490;28;91492;-87
2023/06/18 00:39:03;;;;;;;;;;;22.70;86.10;22.80;99210.00;;;;339811;28;83592;-88
2023/06/18 00:39:15;;;;;;;;;;;22.70;87.00;22.80;99209.00;;;;339605;28;91639;-88
2023/06/18 00:39:27;;;;;;;;;;;22.70;87.10;22.90;99211.00;;;;339747;28;83443;-88
2023/06/18 00:39:39;;;;;;;;;;;22.70;86.60;22.90;99212.00;;;;340706;28;93289;-88
2023/06/18 00:39:51;;;;;;;;;;;22.70;86.90;22.70;99214.00;;;;339608;28;82577;-88
2023/06/18 00:40:03;;;;;;;;;;;22.70;87.40;22.80;99216.00;;;;338117;28;91111;-88
2023/06/18 00:40:16;;;;;;;;;;;22.70;87.10;22.80;99213.00;;;;337156;28;83238;-88
2023/06/18 00:40:28;;;;;;;;;;;22.70;86.90;22.60;99221.00;;;;338157;28;88051;-88
2023/06/18 00:40:40;;;;;;;;;;;22.60;87.40;22.60;99216.00;;;;338142;28;83433;-87
2023/06/18 00:40:52;;;;;;;;;;;22.60;87.60;22.60;99220.00;;;;337763;28;90708;-88
2023/06/18 00:41:04;;;;;;;;;;;22.60;87.80;22.60;99221.00;;;;339783;28;83592;-88
2023/06/18 00:41:16;;;;;;;;;;;22.60;87.70;22.60;99215.00;;;;337703;28;91303;-88
2023/06/18 00:41:28;;;;;;;;;;;22.60;87.40;22.60;99210.00;;;;339771;28;83249;-88
2023/06/18 00:41:40;;;;;;;;;;;22.60;87.60;22.60;99216.00;;;;337969;28;93066;-88
2023/06/18 00:41:52;;;;;;;;;;;22.60;87.50;22.70;99221.00;;;;337097;28;83175;-88
2023/06/18 00:42:05;;;;;;;;;;;22.60;87.10;22.60;99216.00;;;;339405;28;91416;-88
2023/06/18 00:42:18;;;;;;;;;;;22.60;87.40;22.60;99219.00;;;;339758;28;82526;-88
2023/06/18 00:42:30;;;;;;;;;;;22.60;87.40;22.50;99220.00;;;;338992;28;91470;-88
2023/06/18 00:42:42;;;;;;;;;;;22.60;87.50;22.50;99218.00;;;;340673;28;83298;-88
2023/06/18 00:42:55;;;;;;;;;;;22.60;87.90;22.50;99222.00;;;;340202;28;91691;-88
2023/06/18 00:43:07;;;;;;;;;;;22.60;88.00;22.40;99219.00;;;;338113;28;83089;-88
2023/06/18 00:43:18;;;;;;;;;;;22.50;88.10;22.50;99218.00;;;;340422;28;88042;-87
2023/06/18 00:43:31;;;;;;;;;;;22.60;88.20;22.60;99216.00;;;;340720;28;83576;-88
2023/06/18 00:43:43;;;;;;;;;;;22.50;87.50;22.60;99217.00;;;;337635;28;91555;-88
2023/06/18 00:43:57;;;;;;;;;;;22.50;87.50;22.70;99221.00;;;;336741;28;82456;-88
2023/06/18 00:44:09;;;;;;;;;;;22.50;87.40;22.80;99212.00;;;;336194;28;90851;-88
2023/06/18 00:44:21;;;;;;;;;;;22.60;87.30;22.80;99222.00;;;;339376;28;83364;-88
2023/06/18 00:44:33;;;;;;;;;;;22.60;87.10;22.70;99218.00;;;;338988;28;90559;-88
2023/06/18 00:44:45;;;;;;;;;;;22.60;87.10;22.80;99215.00;;;;335383;29;83451;-88
2023/06/18 00:44:57;;;;;;;;;;;22.60;86.80;22.70;99212.00;;;;340258;28;92259;-88
2023/06/18 00:45:09;;;;;;;;;;;22.60;87.50;22.80;99213.00;;;;339400;28;82427;-88
2023/06/18 00:45:22;;;;;;;;;;;22.60;86.80;22.90;99219.00;;;;335050;29;89182;-88
2023/06/18 00:45:34;;;;;;;;;;;22.60;86.90;22.80;99208.00;;;;339289;28;83523;-88
2023/06/18 00:45:46;;;;;;;;;;;22.60;87.10;22.70;99212.00;;;;340174;28;91885;-88
2023/06/18 00:46:01;;;;;;;;;;;22.60;87.20;22.60;99213.00;;;;338042;28;83406;-88
2023/06/18 00:46:13;;;;;;;;;;;22.60;87.70;22.50;99215.00;;;;337559;28;91548;-88
2023/06/18 00:46:25;;;;;;;;;;;22.60;88.10;22.50;99210.00;;;;339387;28;83429;-88
2023/06/18 00:46:37;;;;;;;;;;;22.60;88.20;22.50;99213.00;;;;337698;28;91564;-88
2023/06/18 00:46:51;;;;;;;;;;;22.60;88.20;22.50;99212.00;;;;336615;28;83566;-88
2023/06/18 00:47:04;;;;;;;;;;;22.50;88.10;22.40;99214.00;;;;337613;28;91600;-88
2023/06/18 00:47:17;;;;;;;;;;;22.60;87.90;22.40;99222.00;;;;338071;28;83345;-88
2023/06/18 00:47:29;;;;;;;;;;;22.60;88.20;22.40;99205.00;;;;337470;28;91235;-88
2023/06/18 00:47:42;;;;;;;;;;;22.50;88.20;22.40;99213.00;;;;340585;28;82428;-88
2023/06/18 00:47:54;;;;;;;;;;;22.50;87.90;22.50;99208.00;;;;340278;28;92536;-88
2023/06/18 00:48:06;;;;;;;;;;;22.50;87.60;22.50;99207.00;;;;342102;28;82505;-88
2023/06/18 00:48:18;;;;;;;;;;;22.50;88.20;22.50;99211.00;;;;337596;28;91446;-88
2023/06/18 00:48:31;;;;;;;;;;;22.50;88.20;22.50;99205.00;;;;340640;28;83433;-88
2023/06/18 00:48:45;;;;;;;;;;;22.50;87.80;22.60;99204.00;;;;338857;28;91348;-87
2023/06/18 00:48:57;;;;;;;;;;;22.50;87.30;22.50;99203.00;;;;339386;28;83331;-87
2023/06/18 00:49:09;;;;;;;;;;;22.50;87.70;22.50;99208.00;;;;338921;28;91829;-88
2023/06/18 00:49:21;;;;;;;;;;;22.50;88.00;22.40;99209.00;;;;340605;28;83509;-88
2023/06/18 00:49:33;;;;;;;;;;;22.50;88.40;22.40;99207.00;;;;338838;28;92066;-88
2023/06/18 00:49:45;;;;;;;;;;;22.50;88.40;22.40;99210.00;;;;340623;28;83210;-88
2023/06/18 00:49:59;;;;;;;;;;;22.50;88.80;22.40;99205.00;;;;337574;28;91421;-87
2023/06/18 00:50:15;;;;;;;;;;;22.50;88.70;22.40;99209.00;;;;339308;28;83497;-88
2023/06/18 00:50:32;;;;;;;;;;;22.40;88.30;22.60;99212.00;;;;338917;28;91188;-88
2023/06/18 00:50:44;;;;;;;;;;;22.50;87.80;22.60;99206.00;;;;340564;28;83145;-88
2023/06/18 00:50:58;;;;;;;;;;;22.50;87.60;22.50;99206.00;;;;338953;28;91358;-88
2023/06/18 00:51:10;;;;;;;;;;;22.50;88.20;22.40;99214.00;;;;339370;28;83372;-88
2023/06/18 00:51:22;;;;;;;;;;;22.50;88.00;22.50;99207.00;;;;339005;28;92269;-88
2023/06/18 00:51:34;;;;;;;;;;;22.50;87.50;22.40;99215.00;;;;336674;28;83644;-88
2023/06/18 00:51:47;;;;;;;;;;;22.50;88.00;22.40;99207.00;;;;338857;28;91488;-88
2023/06/18 00:51:59;;;;;;;;;;;22.50;88.20;22.40;99198.00;;;;339374;28;83363;-88
2023/06/18 00:52:14;;;;;;;;;;;22.50;88.00;22.40;99199.00;;;;338734;28;92593;-88
2023/06/18 00:52:26;;;;;;;;;;;22.50;88.10;22.40;99202.00;;;;340618;28;83534;-88
2023/06/18 00:52:38;;;;;;;;;;;22.40;87.90;22.40;99202.00;;;;337523;28;92156;-88
2023/06/18 00:52:51;;;;;;;;;;;22.50;88.10;22.40;99196.00;;;;340487;28;83501;-88
2023/06/18 00:53:03;;;;;;;;;;;22.50;88.40;22.40;99196.00;;;;338909;28;91419;-88
2023/06/18 00:53:15;;;;;;;;;;;22.40;88.20;22.30;99202.00;;;;339381;28;83348;-87
2023/06/18 00:53:28;;;;;;;;;;;22.50;88.30;22.40;99204.00;;;;340227;28;91183;-88
2023/06/18 00:53:40;;;;;;;;;;;22.40;88.00;22.50;99204.00;;;;339375;28;83456;-88
2023/06/18 00:53:53;;;;;;;;;;;22.40;87.60;22.40;99197.00;;;;340301;28;88748;-88
2023/06/18 00:54:05;;;;;;;;;;;22.50;88.00;22.40;99203.00;;;;337997;28;83312;-88
2023/06/18 00:54:17;;;;;;;;;;;22.40;87.70;22.40;99206.00;;;;338812;28;93374;-88
2023/06/18 00:54:28;;;;;;;;;;;22.40;87.70;22.40;99199.00;;;;337977;28;83437;-88
2023/06/18 00:54:44;;;;;;;;;;;22.40;87.90;22.40;99194.00;;;;337639;28;90226;-88
2023/06/18 00:54:56;;;;;;;;;;;22.40;88.00;22.40;99198.00;;;;340604;28;82737;-88
2023/06/18 00:55:08;;;;;;;;;;;22.40;88.00;22.40;99205.00;;;;340154;28;92255;-88
2023/06/18 00:55:20;;;;;;;;;;;22.40;87.80;22.30;99198.00;;;;338007;28;82517;-88
2023/06/18 00:55:32;;;;;;;;;;;22.40;87.80;22.30;99198.00;;;;338897;28;88891;-88
2023/06/18 00:55:44;;;;;;;;;;;22.40;87.80;22.30;99194.00;;;;340599;28;83449;-87
2023/06/18 00:55:56;;;;;;;;;;;22.40;87.60;22.30;99188.00;;;;337582;28;90382;-88
2023/06/18 00:56:09;;;;;;;;;;;22.40;87.80;22.30;99196.00;;;;337946;28;83523;-88
2023/06/18 00:56:22;;;;;;;;;;;22.40;88.00;22.30;99190.00;;;;340069;28;93390;-88
2023/06/18 00:56:37;;;;;;;;;;;22.40;88.00;22.30;99188.00;;;;339486;28;83375;-88
2023/06/18 00:56:51;;;;;;;;;;;22.40;87.80;22.40;99193.00;;;;340206;28;89040;-87
2023/06/18 00:57:04;;;;;;;;;;;22.40;87.70;22.50;99195.00;;;;339291;28;83452;-88
2023/06/18 00:57:17;;;;;;;;;;;22.40;87.30;22.50;99190.00;;;;337632;28;90572;-88
2023/06/18 00:57:30;;;;;;;;;;;22.40;87.10;22.60;99193.00;;;;337969;28;83350;-88
2023/06/18 00:57:44;;;;;;;;;;;22.40;87.20;22.60;99192.00;;;;340213;28;90426;-88
2023/06/18 00:58:03;;;;;;;;;;;22.40;87.10;22.60;99194.00;;;;337960;28;83360;-88
2023/06/18 00:58:15;;;;;;;;;;;22.40;86.90;22.60;99200.00;;;;337523;28;91734;-87
2023/06/18 00:58:27;;;;;;;;;;;22.40;86.90;22.60;99193.00;;;;339413;28;82474;-88
2023/06/18 00:58:38;;;;;;;;;;;22.40;87.00;22.50;99188.00;;;;337459;28;92901;-88
2023/06/18 00:58:51;;;;;;;;;;;22.40;87.10;22.40;99191.00;;;;340580;28;83468;-88
2023/06/18 00:59:03;;;;;;;;;;;22.40;87.30;22.40;99201.00;;;;341648;28;88022;-88
2023/06/18 00:59:22;;;;;;;;;;;22.40;87.50;22.50;99192.00;;;;339393;28;83388;-88
2023/06/18 00:59:37;;;;;;;;;;;22.40;87.80;22.40;99188.00;;;;340280;28;92098;-88
2023/06/18 00:59:51;;;;;;;;;;;22.40;87.60;22.40;99190.00;;;;340863;28;83160;-88
2023/06/18 01:00:12;;;;;;;;;;;22.40;87.90;22.50;99193.00;;;;339195;28;86937;-88
2023/06/18 01:00:25;;;;;;;;;;;22.40;87.70;22.30;99195.00;;;;337923;28;83448;-88
2023/06/18 01:00:37;;;;;;;;;;;22.40;87.80;22.40;99191.00;;;;337522;28;88391;-88
2023/06/18 01:00:50;;;;;;;;;;;22.40;87.70;22.40;99192.00;;;;339297;28;83467;-88
2023/06/18 01:01:02;;;;;;;;;;;22.40;87.60;22.50;99187.00;;;;340231;28;93271;-88
2023/06/18 01:01:15;;;;;;;;;;;22.40;87.40;22.60;99193.00;;;;339314;28;83535;-88
2023/06/18 01:01:28;;;;;;;;;;;22.50;87.50;22.60;99200.00;;;;340215;28;90741;-88
2023/06/18 01:01:40;;;;;;;;;;;22.40;87.30;22.70;99188.00;;;;339291;28;82598;-88
2023/06/18 01:01:53;;;;;;;;;;;22.40;87.30;22.70;99185.00;;;;337616;28;91511;-87
2023/06/18 01:02:08;;;;;;;;;;;22.40;87.20;22.60;99194.00;;;;340618;28;83449;-88
2023/06/18 01:02:25;;;;;;;;;;;22.50;87.30;22.50;99194.00;;;;340179;28;92021;-88
2023/06/18 01:02:45;;;;;;;;;;;22.40;87.40;22.60;99195.00;;;;340580;28;83454;-88
2023/06/18 01:03:02;;;;;;;;;;;22.50;87.40;22.40;99198.00;;;;338884;28;90957;-88
2023/06/18 01:03:17;;;;;;;;;;;22.40;88.30;22.40;99194.00;;;;338086;28;83367;-88
2023/06/18 01:03:32;;;;;;;;;;;22.40;88.10;22.40;99194.00;;;;337386;28;93630;-87
2023/06/18 01:03:47;;;;;;;;;;;22.40;87.70;22.50;99199.00;;;;337969;28;83383;-88
2023/06/18 01:04:00;;;;;;;;;;;22.40;87.20;22.50;99200.00;;;;341529;28;90873;-88
2023/06/18 01:04:13;;;;;;;;;;;22.50;87.10;22.70;99198.00;;;;342018;28;83397;-88
2023/06/18 01:04:27;;;;;;;;;;;22.40;87.20;22.60;99199.00;;;;337623;28;88702;-88
2023/06/18 01:04:40;;;;;;;;;;;22.40;87.00;22.60;99200.00;;;;342009;28;82390;-88
2023/06/18 01:04:54;;;;;;;;;;;22.50;86.90;22.50;99199.00;;;;338771;28;92383;-88
2023/06/18 01:05:09;;;;;;;;;;;22.40;87.30;22.50;99198.00;;;;338042;28;83375;-88